createdAt,value
2019-02-25T00:03:51.769Z,6.13
2019-02-25T00:07:57.211Z,5.57
2019-02-25T00:12:02.680Z,5.43
2019-02-25T00:16:09.528Z,5.67
2019-02-25T00:20:15.102Z,5.70
2019-02-25T00:24:20.453Z,6.13
2019-02-25T00:28:25.891Z,6.50
2019-02-25T00:32:31.336Z,7.00
2019-02-25T00:36:36.834Z,6.77
2019-02-25T00:40:42.349Z,5.47
2019-02-25T00:44:47.845Z,5.83
2019-02-25T00:48:53.275Z,6.03
2019-02-25T00:52:58.902Z,5.97
2019-02-25T00:57:04.346Z,6.03
2019-02-25T01:01:09.786Z,5.80
2019-02-25T01:05:16.445Z,6.00
2019-02-25T01:09:21.895Z,6.30
2019-02-25T01:13:27.349Z,6.10
2019-02-25T01:17:32.735Z,5.60
2019-02-25T01:21:38.581Z,5.83
2019-02-25T01:25:44.099Z,5.90
2019-02-25T01:29:49.852Z,5.53
2019-02-25T01:33:55.655Z,5.60
2019-02-25T01:38:01.215Z,5.50
2019-02-25T01:42:06.774Z,5.00
2019-02-25T01:46:12.167Z,5.40
2019-02-25T01:50:17.673Z,6.20
2019-02-25T01:54:23.118Z,5.57
2019-02-25T01:58:28.559Z,5.70
2019-02-25T02:02:33.870Z,5.80
2019-02-25T02:06:39.601Z,5.63
2019-02-25T02:10:45.111Z,5.13
2019-02-25T02:14:50.634Z,5.60
2019-02-25T02:18:55.855Z,5.60
2019-02-25T02:23:01.604Z,5.87
2019-02-25T02:27:07.491Z,5.53
2019-02-25T02:31:12.910Z,5.80
2019-02-25T02:35:18.965Z,5.53
2019-02-25T02:39:24.547Z,5.80
2019-02-25T02:43:30.099Z,5.63
2019-02-25T02:48:04.455Z,5.50
2019-02-25T02:52:10.192Z,5.13
2019-02-25T02:56:15.632Z,5.83
2019-02-25T03:00:21.308Z,5.03
2019-02-25T03:04:26.666Z,5.33
2019-02-25T03:08:32.396Z,5.70
2019-02-25T03:12:38.139Z,5.30
2019-02-25T03:16:43.803Z,5.40
2019-02-25T03:20:49.552Z,5.37
2019-02-25T03:24:55.057Z,5.77
2019-02-25T03:29:00.568Z,5.40
2019-02-25T03:33:06.059Z,5.57
2019-02-25T03:37:11.712Z,5.20
2019-02-25T03:41:17.198Z,5.83
2019-02-25T03:45:23.034Z,5.53
2019-02-25T03:49:28.412Z,5.33
2019-02-25T03:53:34.129Z,5.83
2019-02-25T03:57:40.226Z,5.60
2019-02-25T04:01:45.683Z,5.20
2019-02-25T04:05:51.118Z,5.83
2019-02-25T04:09:56.914Z,6.03
2019-02-25T04:14:02.334Z,5.87
2019-02-25T04:18:07.928Z,5.50
2019-02-25T04:22:13.353Z,5.97
2019-02-25T04:26:18.991Z,5.53
2019-02-25T04:30:24.454Z,5.60
2019-02-25T04:34:29.963Z,6.63
2019-02-25T04:38:35.408Z,5.97
2019-02-25T04:42:41.145Z,5.77
2019-02-25T04:46:46.694Z,6.47
2019-02-25T04:50:52.404Z,6.50
2019-02-25T04:54:57.931Z,6.67
2019-02-25T04:59:03.349Z,8.03
2019-02-25T05:03:09.209Z,6.93
2019-02-25T05:07:14.672Z,6.50
2019-02-25T05:11:21.797Z,6.50
2019-02-25T05:15:27.938Z,6.73
2019-02-25T05:19:33.698Z,6.07
2019-02-25T05:23:39.424Z,7.23
2019-02-25T05:27:44.934Z,6.23
2019-02-25T05:31:50.416Z,5.87
2019-02-25T05:35:55.876Z,6.17
2019-02-25T05:40:01.318Z,6.93
2019-02-25T05:44:08.558Z,6.27
2019-02-25T05:48:14.667Z,6.80
2019-02-25T05:52:20.211Z,6.57
2019-02-25T05:56:25.826Z,5.93
2019-02-25T06:00:32.235Z,6.00
2019-02-25T06:04:37.811Z,6.07
2019-02-25T06:08:43.251Z,5.90
2019-02-25T06:12:48.695Z,6.40
2019-02-25T06:16:54.416Z,5.90
2019-02-25T06:21:01.904Z,6.10
2019-02-25T06:25:08.084Z,6.30
2019-02-25T06:29:13.654Z,6.10
2019-02-25T06:33:19.194Z,6.27
2019-02-25T06:37:25.201Z,5.43
2019-02-25T06:41:30.801Z,6.73
2019-02-25T06:45:36.392Z,7.07
2019-02-25T06:49:42.479Z,6.40
2019-02-25T06:53:47.965Z,6.87
2019-02-25T06:57:53.728Z,6.23
2019-02-25T07:01:59.097Z,6.70
2019-02-25T07:06:24.544Z,6.50
2019-02-25T07:10:52.429Z,6.83
2019-02-25T07:15:04.879Z,7.03
2019-02-25T07:19:30.281Z,6.43
2019-02-25T07:24:01.154Z,6.77
2019-02-25T07:28:24.494Z,6.10
2019-02-25T07:32:59.543Z,6.23
2019-02-25T07:37:30.047Z,6.33
2019-02-25T07:41:44.793Z,5.67
2019-02-25T07:46:07.809Z,4.90
2019-02-25T07:50:47.209Z,4.93
2019-02-25T07:55:19.574Z,5.33
2019-02-25T07:59:43.866Z,5.27
2019-02-25T08:03:55.127Z,4.97
2019-02-25T08:08:12.175Z,5.03
2019-02-25T08:12:23.357Z,5.80
2019-02-25T08:16:56.885Z,5.47
2019-02-25T08:21:13.426Z,3.90
2019-02-25T08:25:47.645Z,4.50
2019-02-25T08:30:09.346Z,5.57
2019-02-25T08:34:34.198Z,5.13
2019-02-25T08:38:52.197Z,4.53
2019-02-25T08:43:10.466Z,4.80
2019-02-25T08:47:20.403Z,4.70
2019-02-25T08:51:26.969Z,4.40
2019-02-25T08:55:32.789Z,4.77
2019-02-25T08:59:38.512Z,4.97
2019-02-25T09:03:45.026Z,4.47
2019-02-25T09:07:50.464Z,4.33
2019-02-25T09:11:56.031Z,3.77
2019-02-25T09:16:01.523Z,4.17
2019-02-25T09:20:07.016Z,3.17
2019-02-25T09:24:12.437Z,4.00
2019-02-25T09:28:17.885Z,3.33
2019-02-25T09:32:23.338Z,3.50
2019-02-25T09:36:28.776Z,3.80
2019-02-25T09:40:34.234Z,3.67
2019-02-25T09:44:39.579Z,3.57
2019-02-25T09:48:45.317Z,3.73
2019-02-25T09:52:51.016Z,3.83
2019-02-25T09:56:56.750Z,3.53
2019-02-25T10:01:02.479Z,3.17
2019-02-25T10:05:08.519Z,3.40
2019-02-25T10:09:13.971Z,3.23
2019-02-25T10:13:19.842Z,3.10
2019-02-25T10:17:25.274Z,3.00
2019-02-25T10:21:31.011Z,3.80
2019-02-25T10:25:36.755Z,3.33
2019-02-25T10:29:42.077Z,3.13
2019-02-25T10:33:50.928Z,3.03
2019-02-25T10:37:56.719Z,3.07
2019-02-25T10:42:02.307Z,3.43
2019-02-25T10:46:09.514Z,3.13
2019-02-25T10:50:15.138Z,3.03
2019-02-25T10:54:21.262Z,3.10
2019-02-25T10:58:30.720Z,2.50
2019-02-25T11:02:43.878Z,2.40
2019-02-25T11:06:42.281Z,2.20
2019-02-25T11:11:06.648Z,2.20
2019-02-25T11:15:13.838Z,2.30
2019-02-25T11:19:19.746Z,2.37
2019-02-25T11:23:25.264Z,1.80
2019-02-25T11:27:33.073Z,1.80
2019-02-25T11:31:38.281Z,1.90
2019-02-25T11:35:45.808Z,1.70
2019-02-25T11:39:52.595Z,1.60
2019-02-25T11:43:58.683Z,1.93
2019-02-25T11:48:04.183Z,1.92
2019-02-25T11:52:09.873Z,1.92
2019-02-25T11:56:15.500Z,1.80
2019-02-25T12:00:22.344Z,2.05
2019-02-25T12:04:28.143Z,2.00
2019-02-25T12:08:33.546Z,1.80
2019-02-25T12:12:38.993Z,1.70
2019-02-25T12:16:44.729Z,2.35
2019-02-25T12:20:50.196Z,1.87
2019-02-25T12:24:55.592Z,1.70
2019-02-25T12:29:10.374Z,2.17
2019-02-25T12:33:08.499Z,2.20
2019-02-25T12:37:13.964Z,2.00
2019-02-25T12:41:19.863Z,1.95
2019-02-25T12:45:25.319Z,2.15
2019-02-25T12:49:31.223Z,1.77
2019-02-25T12:53:37.885Z,1.92
2019-02-25T12:57:43.398Z,1.62
2019-02-25T13:01:49.000Z,1.92
2019-02-25T13:05:54.653Z,1.95
2019-02-25T13:10:00.304Z,1.75
2019-02-25T13:14:05.825Z,1.52
2019-02-25T13:18:11.244Z,1.60
2019-02-25T13:22:16.626Z,1.60
2019-02-25T13:26:22.367Z,1.45
2019-02-25T13:30:27.867Z,1.50
2019-02-25T13:34:33.269Z,1.40
2019-02-25T13:38:38.987Z,1.55
2019-02-25T13:42:44.489Z,1.52
2019-02-25T13:46:50.060Z,1.30
2019-02-25T13:50:55.565Z,1.40
2019-02-25T13:55:01.154Z,1.40
2019-02-25T13:59:07.206Z,1.50
2019-02-25T14:03:12.973Z,1.80
2019-02-25T14:07:18.508Z,1.55
2019-02-25T14:11:23.872Z,1.70
2019-02-25T14:15:29.330Z,1.20
2019-02-25T14:19:34.754Z,1.32
2019-02-25T14:23:40.668Z,1.47
2019-02-25T14:27:46.127Z,1.52
2019-02-25T14:31:52.480Z,1.47
2019-02-25T14:35:58.223Z,1.37
2019-02-25T14:40:05.978Z,1.22
2019-02-25T14:44:11.302Z,1.20
2019-02-25T14:48:20.429Z,1.10
2019-02-25T14:52:26.733Z,1.10
2019-02-25T14:56:31.661Z,1.30
2019-02-25T15:00:38.228Z,1.40
2019-02-25T15:04:43.982Z,1.50
2019-02-25T15:08:49.386Z,1.45
2019-02-25T15:12:58.814Z,1.62
2019-02-25T15:17:03.868Z,1.50
2019-02-25T15:21:11.226Z,1.40
2019-02-25T15:25:17.352Z,1.77
2019-02-25T15:29:23.119Z,2.60
2019-02-25T15:33:30.016Z,2.42
2019-02-25T15:37:36.504Z,2.33
2019-02-25T15:41:43.967Z,2.17
2019-02-25T15:45:49.132Z,2.60
2019-02-25T15:49:59.752Z,2.77
2019-02-25T15:54:02.922Z,2.77
2019-02-25T15:58:08.771Z,2.87
2019-02-25T16:02:14.528Z,2.30
2019-02-25T16:06:19.982Z,2.52
2019-02-25T16:10:25.551Z,3.00
2019-02-25T16:14:31.010Z,2.80
2019-02-25T16:18:36.573Z,3.80
2019-02-25T16:22:42.654Z,3.65
2019-02-25T16:26:48.857Z,3.47
2019-02-25T16:30:54.435Z,4.35
2019-02-25T16:35:00.274Z,4.15
2019-02-25T16:39:09.634Z,4.72
2019-02-25T16:43:15.623Z,5.87
2019-02-25T16:47:31.911Z,5.72
2019-02-25T16:51:30.235Z,5.30
2019-02-25T16:55:35.773Z,4.35
2019-02-25T16:59:41.269Z,5.03
2019-02-25T17:03:48.215Z,4.30
2019-02-25T17:07:55.989Z,4.87
2019-02-25T17:12:02.871Z,4.90
2019-02-25T17:16:17.883Z,4.00
2019-02-25T17:20:16.765Z,4.47
2019-02-25T17:24:24.009Z,4.20
2019-02-25T17:28:29.588Z,3.98
2019-02-25T17:32:35.055Z,4.20
2019-02-25T17:36:40.476Z,5.13
2019-02-25T17:40:45.907Z,5.20
2019-02-25T17:44:53.314Z,4.40
2019-02-25T17:48:58.707Z,4.47
2019-02-25T17:53:05.124Z,4.62
2019-02-25T17:57:13.676Z,5.70
2019-02-25T18:01:21.007Z,4.70
2019-02-25T18:05:26.769Z,5.10
2019-02-25T18:09:32.310Z,5.50
2019-02-25T18:13:38.095Z,5.07
2019-02-25T18:17:44.870Z,5.53
2019-02-25T18:21:51.151Z,6.00
2019-02-25T18:25:58.687Z,4.97
2019-02-25T18:30:05.415Z,5.40
2019-02-25T18:34:12.924Z,5.47
2019-02-25T18:38:18.894Z,4.97
2019-02-25T18:42:24.387Z,6.17
2019-02-25T18:46:30.477Z,5.23
2019-02-25T18:50:36.341Z,5.23
2019-02-25T18:54:43.370Z,6.00
2019-02-25T18:58:49.512Z,6.47
2019-02-25T19:02:56.173Z,7.03
2019-02-25T19:07:03.664Z,7.07
2019-02-25T19:11:13.043Z,6.73
2019-02-25T19:15:17.608Z,6.07
2019-02-25T19:19:23.337Z,6.77
2019-02-25T19:23:31.270Z,6.27
2019-02-25T19:27:36.513Z,6.73
2019-02-25T19:31:42.925Z,6.70
2019-02-25T19:35:48.599Z,7.00
2019-02-25T19:39:54.163Z,7.10
2019-02-25T19:44:03.287Z,7.20
2019-02-25T19:48:07.279Z,7.07
2019-02-25T19:52:14.437Z,6.70
2019-02-25T19:56:20.871Z,7.17
2019-02-25T20:00:28.271Z,6.37
2019-02-25T20:04:35.976Z,6.90
2019-02-25T20:08:42.100Z,6.60
2019-02-25T20:12:53.125Z,6.97
2019-02-25T20:16:59.437Z,7.47
2019-02-25T20:21:06.461Z,7.77
2019-02-25T20:25:14.471Z,7.43
2019-02-25T20:29:19.891Z,8.03
2019-02-25T20:33:30.460Z,8.07
2019-02-25T20:37:33.889Z,8.40
2019-02-25T20:41:40.064Z,8.10
2019-02-25T20:45:45.503Z,7.80
2019-02-25T20:49:53.698Z,8.00
2019-02-25T20:53:59.778Z,8.03
2019-02-25T20:58:05.329Z,8.70
2019-02-25T21:02:15.805Z,8.23
2019-02-25T21:06:21.095Z,8.33
2019-02-25T21:10:32.756Z,9.57
2019-02-25T21:14:42.714Z,9.40
2019-02-25T21:18:52.925Z,8.40
2019-02-25T21:23:02.851Z,8.47
2019-02-25T21:27:06.425Z,9.53
2019-02-25T21:31:16.196Z,8.93
2019-02-25T21:35:23.534Z,9.13
2019-02-25T21:39:27.943Z,8.87
2019-02-25T21:43:35.468Z,9.33
2019-02-25T21:47:41.023Z,8.73
2019-02-25T21:51:48.015Z,8.80
2019-02-25T21:55:55.379Z,9.80
2019-02-25T22:00:02.987Z,10.03
2019-02-25T22:04:12.970Z,9.17
2019-02-25T22:08:26.691Z,8.70
2019-02-25T22:12:33.191Z,9.97
2019-02-25T22:16:44.007Z,9.97
2019-02-25T22:20:49.225Z,10.30
2019-02-25T22:24:54.481Z,9.80
2019-02-25T22:29:01.751Z,10.40
2019-02-25T22:33:12.738Z,8.97
2019-02-25T22:37:16.758Z,10.37
2019-02-25T22:41:22.935Z,10.10
2019-02-25T22:45:31.454Z,9.17
2019-02-25T22:49:36.708Z,9.20
2019-02-25T22:53:42.145Z,9.07
2019-02-25T22:57:50.952Z,9.13
2019-02-25T23:01:55.013Z,10.07
2019-02-25T23:06:00.438Z,9.80
2019-02-25T23:10:08.410Z,9.30
2019-02-25T23:14:14.036Z,9.53
2019-02-25T23:18:28.032Z,8.33
2019-02-25T23:22:34.937Z,9.83
2019-02-25T23:26:41.078Z,10.00
2019-02-25T23:30:46.584Z,9.43
2019-02-25T23:34:52.759Z,9.13
2019-02-25T23:38:59.565Z,11.20
2019-02-25T23:43:07.460Z,10.07
2019-02-25T23:47:13.451Z,11.07
2019-02-25T23:51:19.563Z,11.10
2019-02-25T23:55:27.947Z,10.57
2019-02-25T23:59:34.067Z,10.07
